createdAt,value
2023-03-06T00:01:31.949Z,11.55
2023-03-06T00:04:03.852Z,10.43
2023-03-06T00:06:35.589Z,10.85
2023-03-06T00:09:09.749Z,11.40
2023-03-06T00:11:41.341Z,9.93
2023-03-06T00:14:12.888Z,12.70
2023-03-06T00:16:47.440Z,10.07
2023-03-06T00:19:18.996Z,10.70
2023-03-06T00:21:50.805Z,13.23
2023-03-06T00:24:22.421Z,10.70
2023-03-06T00:26:56.966Z,14.75
2023-03-06T00:29:30.618Z,11.45
2023-03-06T00:32:05.751Z,15.25
2023-03-06T00:34:37.604Z,12.45
2023-03-06T00:37:09.299Z,14.38
2023-03-06T00:39:40.866Z,13.27
2023-03-06T00:42:13.249Z,13.93
2023-03-06T00:44:47.895Z,12.55
2023-03-06T00:47:19.513Z,11.35
2023-03-06T00:49:51.147Z,12.93
2023-03-06T00:52:22.710Z,14.65
2023-03-06T00:54:54.365Z,12.40
2023-03-06T00:57:25.953Z,9.75
2023-03-06T00:59:57.521Z,14.05
2023-03-06T01:02:29.247Z,11.02
2023-03-06T01:05:02.953Z,10.00
2023-03-06T01:07:36.590Z,11.82
2023-03-06T01:10:10.313Z,14.68
2023-03-06T01:12:41.894Z,12.93
2023-03-06T01:15:13.955Z,10.27
2023-03-06T01:17:45.700Z,10.45
2023-03-06T01:20:18.348Z,13.40
2023-03-06T01:22:50.044Z,14.00
2023-03-06T01:25:21.590Z,12.23
2023-03-06T01:27:53.329Z,10.38
2023-03-06T01:30:24.899Z,12.20
2023-03-06T01:32:56.486Z,12.85
2023-03-06T01:35:28.046Z,14.10
2023-03-06T01:37:59.712Z,11.23
2023-03-06T01:40:33.983Z,12.15
2023-03-06T01:43:28.926Z,11.68
2023-03-06T01:46:42.312Z,13.80
2023-03-06T01:49:24.357Z,12.63
2023-03-06T01:52:00.716Z,12.20
2023-03-06T01:54:46.532Z,10.00
2023-03-06T01:57:23.942Z,12.57
2023-03-06T02:00:13.898Z,12.95
2023-03-06T02:03:11.250Z,12.63
2023-03-06T02:05:44.020Z,11.70
2023-03-06T02:08:19.479Z,12.38
2023-03-06T02:11:21.178Z,13.05
2023-03-06T02:13:54.780Z,12.60
2023-03-06T02:16:31.354Z,14.30
2023-03-06T02:19:07.222Z,15.40
2023-03-06T02:21:44.482Z,13.60
2023-03-06T02:24:30.159Z,13.80
2023-03-06T02:27:05.507Z,14.63
2023-03-06T02:29:37.062Z,12.95
2023-03-06T02:32:09.044Z,14.93
2023-03-06T02:34:40.533Z,12.93
2023-03-06T02:37:12.117Z,12.95
2023-03-06T02:39:50.045Z,14.98
2023-03-06T02:42:26.335Z,13.23
2023-03-06T02:45:01.806Z,13.23
2023-03-06T02:47:33.335Z,13.10
2023-03-06T02:50:05.234Z,14.38
2023-03-06T02:52:36.830Z,11.05
2023-03-06T02:55:09.226Z,13.43
2023-03-06T02:57:40.889Z,11.93
2023-03-06T03:00:14.168Z,14.82
2023-03-06T03:02:48.677Z,12.80
2023-03-06T03:05:20.254Z,14.07
2023-03-06T03:07:52.033Z,16.13
2023-03-06T03:10:24.003Z,12.95
2023-03-06T03:12:56.037Z,12.93
2023-03-06T03:15:27.988Z,11.82
2023-03-06T03:17:59.516Z,13.35
2023-03-06T03:20:31.122Z,14.70
2023-03-06T03:23:02.899Z,16.50
2023-03-06T03:25:34.392Z,14.52
2023-03-06T03:28:06.003Z,15.18
2023-03-06T03:30:40.451Z,15.43
2023-03-06T03:33:12.844Z,13.63
2023-03-06T03:35:44.426Z,18.60
2023-03-06T03:38:16.050Z,15.85
2023-03-06T03:40:50.624Z,12.07
2023-03-06T03:43:22.490Z,16.73
2023-03-06T03:45:54.187Z,15.13
2023-03-06T03:48:25.877Z,15.35
2023-03-06T03:51:08.897Z,14.57
2023-03-06T03:53:40.684Z,14.32
2023-03-06T03:56:13.248Z,10.93
2023-03-06T03:58:44.811Z,14.65
2023-03-06T04:01:16.417Z,15.18
2023-03-06T04:03:48.307Z,13.45
2023-03-06T04:06:21.963Z,13.88
2023-03-06T04:08:53.875Z,13.45
2023-03-06T04:11:25.547Z,11.38
2023-03-06T04:13:57.225Z,14.02
2023-03-06T04:16:28.799Z,15.45
2023-03-06T04:19:00.815Z,13.25
2023-03-06T04:21:34.657Z,14.52
2023-03-06T04:24:07.066Z,15.48
2023-03-06T04:26:41.485Z,14.38
2023-03-06T04:29:13.121Z,15.63
2023-03-06T04:31:44.761Z,12.98
2023-03-06T04:34:16.415Z,14.55
2023-03-06T04:36:47.932Z,12.18
2023-03-06T04:39:19.453Z,14.10
2023-03-06T04:41:51.048Z,14.73
2023-03-06T04:44:22.749Z,12.82
2023-03-06T04:46:54.282Z,15.60
2023-03-06T04:49:26.089Z,11.82
2023-03-06T04:51:57.924Z,15.00
2023-03-06T04:54:29.819Z,15.98
2023-03-06T04:57:01.391Z,15.40
2023-03-06T04:59:32.969Z,13.32
2023-03-06T05:02:04.760Z,17.42
2023-03-06T05:04:36.315Z,12.98
2023-03-06T05:07:08.366Z,13.45
2023-03-06T05:09:39.952Z,16.25
2023-03-06T05:12:11.575Z,15.60
2023-03-06T05:14:43.787Z,14.73
2023-03-06T05:17:15.367Z,12.75
2023-03-06T05:19:46.923Z,16.48
2023-03-06T05:22:18.548Z,15.07
2023-03-06T05:24:50.253Z,14.68
2023-03-06T05:27:22.066Z,15.50
2023-03-06T05:29:54.537Z,14.35
2023-03-06T05:32:26.602Z,14.88
2023-03-06T05:34:58.184Z,14.00
2023-03-06T05:37:29.890Z,12.80
2023-03-06T05:40:06.624Z,11.75
2023-03-06T05:42:38.124Z,18.42
2023-03-06T05:45:10.777Z,21.00
2023-03-06T05:47:42.319Z,17.73
2023-03-06T05:50:14.806Z,18.48
2023-03-06T05:52:46.371Z,15.95
2023-03-06T05:55:19.558Z,16.55
2023-03-06T05:57:51.703Z,15.90
2023-03-06T06:00:24.119Z,15.38
2023-03-06T06:03:01.732Z,15.35
2023-03-06T06:05:33.278Z,17.45
2023-03-06T06:08:04.958Z,19.60
2023-03-06T06:10:36.576Z,16.10
2023-03-06T06:13:10.649Z,17.63
2023-03-06T06:15:42.279Z,17.13
2023-03-06T06:18:13.987Z,15.65
2023-03-06T06:20:45.716Z,15.13
2023-03-06T06:23:17.291Z,16.13
2023-03-06T06:25:48.910Z,17.30
2023-03-06T06:28:20.398Z,17.17
2023-03-06T06:30:51.997Z,16.20
2023-03-06T06:33:24.365Z,15.50
2023-03-06T06:35:55.965Z,21.30
2023-03-06T06:38:27.536Z,17.30
2023-03-06T06:41:31.221Z,17.67
2023-03-06T06:43:50.536Z,14.55
2023-03-06T06:46:59.262Z,16.48
2023-03-06T06:49:14.864Z,17.88
2023-03-06T06:51:46.460Z,14.48
2023-03-06T06:54:19.838Z,14.18
2023-03-06T06:56:52.030Z,13.50
2023-03-06T06:59:25.883Z,16.02
2023-03-06T07:01:57.711Z,16.95
2023-03-06T07:04:29.349Z,18.15
2023-03-06T07:07:01.418Z,15.85
2023-03-06T07:09:32.976Z,18.92
2023-03-06T07:12:04.879Z,15.85
2023-03-06T07:14:36.455Z,18.55
2023-03-06T07:17:09.649Z,16.15
2023-03-06T07:19:41.556Z,14.93
2023-03-06T07:22:13.105Z,17.23
2023-03-06T07:24:44.937Z,17.25
2023-03-06T07:27:16.494Z,15.90
2023-03-06T07:29:48.729Z,20.55
2023-03-06T07:32:23.961Z,14.75
2023-03-06T07:35:09.683Z,18.95
2023-03-06T07:37:47.088Z,19.17
2023-03-06T07:40:20.692Z,17.27
2023-03-06T07:43:09.246Z,20.85
2023-03-06T07:45:46.940Z,22.45
2023-03-06T07:48:18.545Z,18.10
2023-03-06T07:51:03.088Z,17.73
2023-03-06T07:53:35.459Z,13.73
2023-03-06T07:56:11.295Z,16.33
2023-03-06T07:58:46.979Z,12.30
2023-03-06T08:01:23.426Z,13.85
2023-03-06T08:03:55.456Z,13.00
2023-03-06T08:06:27.703Z,13.18
2023-03-06T08:08:59.697Z,11.93
2023-03-06T08:11:32.017Z,12.77
2023-03-06T08:14:04.007Z,10.95
2023-03-06T08:16:35.649Z,12.85
2023-03-06T08:19:07.524Z,13.32
2023-03-06T08:21:39.132Z,11.70
2023-03-06T08:24:10.858Z,13.40
2023-03-06T08:26:43.210Z,14.70
2023-03-06T08:29:15.454Z,13.45
2023-03-06T08:31:48.625Z,10.50
2023-03-06T08:34:24.584Z,17.10
2023-03-06T08:36:56.184Z,11.43
2023-03-06T08:39:27.675Z,10.30
2023-03-06T08:41:59.351Z,10.80
2023-03-06T08:44:35.018Z,12.93
2023-03-06T08:47:09.357Z,11.45
2023-03-06T08:49:40.890Z,14.18
2023-03-06T08:52:12.476Z,15.73
2023-03-06T08:54:44.058Z,16.55
2023-03-06T08:57:15.785Z,12.02
2023-03-06T08:59:47.283Z,12.50
2023-03-06T09:02:18.861Z,11.40
2023-03-06T09:04:50.482Z,12.50
2023-03-06T09:07:22.223Z,15.55
2023-03-06T09:09:58.037Z,16.38
2023-03-06T09:12:32.613Z,12.70
2023-03-06T09:15:10.628Z,16.05
2023-03-06T09:17:42.372Z,11.70
2023-03-06T09:20:15.111Z,14.32
2023-03-06T09:22:47.090Z,12.30
2023-03-06T09:25:20.487Z,15.25
2023-03-06T09:28:08.602Z,14.07
2023-03-06T09:30:42.297Z,13.75
2023-03-06T09:33:14.768Z,12.20
2023-03-06T09:35:52.429Z,14.00
2023-03-06T09:38:27.826Z,15.10
2023-03-06T09:43:43.147Z,14.40
2023-03-06T09:46:36.685Z,14.13
2023-03-06T09:49:18.332Z,15.18
2023-03-06T09:52:40.987Z,14.45
2023-03-06T09:55:19.501Z,10.68
2023-03-06T09:58:01.631Z,13.60
2023-03-06T10:01:03.652Z,15.60
2023-03-06T10:04:05.746Z,12.30
2023-03-06T10:06:50.807Z,12.95
2023-03-06T10:09:48.310Z,16.00
2023-03-06T10:12:37.133Z,11.85
2023-03-06T10:15:28.604Z,11.35
2023-03-06T10:18:03.196Z,10.75
2023-03-06T10:21:00.939Z,12.48
2023-03-06T10:23:52.562Z,12.07
2023-03-06T10:26:32.978Z,11.00
2023-03-06T10:29:22.232Z,13.50
2023-03-06T10:32:11.606Z,11.55
2023-03-06T10:34:43.423Z,10.43
2023-03-06T10:37:22.264Z,11.38
2023-03-06T10:40:08.419Z,10.65
2023-03-06T10:42:40.123Z,13.05
2023-03-06T10:45:17.067Z,11.18
2023-03-06T10:47:48.639Z,10.32
2023-03-06T10:50:28.240Z,10.18
2023-03-06T10:53:07.185Z,10.98
2023-03-06T10:55:39.166Z,10.10
2023-03-06T10:58:30.892Z,10.43
2023-03-06T11:01:07.778Z,10.00
2023-03-06T11:03:39.463Z,11.77
2023-03-06T11:06:32.598Z,9.35
2023-03-06T11:09:25.677Z,11.45
2023-03-06T11:12:29.066Z,11.45
2023-03-06T11:15:06.726Z,9.73
2023-03-06T11:18:08.618Z,8.93
2023-03-06T11:20:51.370Z,8.27
2023-03-06T11:23:47.368Z,9.65
2023-03-06T11:26:34.493Z,10.45
2023-03-06T11:29:14.588Z,8.68
2023-03-06T11:31:55.822Z,9.15
2023-03-06T11:34:50.258Z,11.80
2023-03-06T11:37:49.471Z,12.32
2023-03-06T11:40:28.672Z,8.98
2023-03-06T11:43:23.383Z,10.77
2023-03-06T11:46:24.674Z,10.07
2023-03-06T11:49:24.409Z,9.68
2023-03-06T11:52:03.385Z,13.63
2023-03-06T11:54:35.793Z,8.52
2023-03-06T11:57:18.143Z,8.93
2023-03-06T12:00:04.428Z,10.98
2023-03-06T12:03:09.586Z,10.35
2023-03-06T12:06:09.719Z,8.95
2023-03-06T12:09:09.128Z,7.43
2023-03-06T12:11:57.137Z,7.72
2023-03-06T12:14:42.837Z,8.00
2023-03-06T12:17:50.771Z,9.18
2023-03-06T12:20:33.031Z,7.80
2023-03-06T12:23:36.705Z,8.80
2023-03-06T12:26:55.750Z,4.88
2023-03-06T12:29:56.213Z,6.65
2023-03-06T12:32:56.506Z,8.60
2023-03-06T12:36:17.435Z,9.20
2023-03-06T12:39:08.393Z,8.27
2023-03-06T12:42:04.927Z,6.75
2023-03-06T12:44:43.282Z,6.35
2023-03-06T12:47:20.724Z,9.25
2023-03-06T12:50:13.827Z,6.90
2023-03-06T12:52:46.937Z,6.18
2023-03-06T12:55:23.186Z,8.07
2023-03-06T12:57:55.885Z,5.97
2023-03-06T13:00:34.356Z,9.82
2023-03-06T13:04:02.524Z,7.05
2023-03-06T13:07:22.806Z,7.25
2023-03-06T13:10:10.858Z,7.85
2023-03-06T13:13:01.742Z,8.85
2023-03-06T13:16:04.281Z,7.65
2023-03-06T13:18:46.585Z,6.78
2023-03-06T13:21:55.300Z,7.18
2023-03-06T13:24:33.932Z,6.13
2023-03-06T13:27:12.298Z,5.55
2023-03-06T13:29:53.065Z,8.30
2023-03-06T13:32:32.789Z,8.57
2023-03-06T13:35:30.592Z,6.57
2023-03-06T13:38:02.176Z,6.35
2023-03-06T13:40:35.389Z,8.93
2023-03-06T13:43:06.955Z,7.80
2023-03-06T13:45:46.946Z,6.50
2023-03-06T13:48:47.655Z,6.97
2023-03-06T13:51:27.067Z,8.48
2023-03-06T13:54:42.492Z,7.05
2023-03-06T13:57:44.718Z,5.90
2023-03-06T14:01:12.389Z,9.25
2023-03-06T14:04:01.830Z,6.22
2023-03-06T14:06:37.282Z,6.93
2023-03-06T14:09:41.404Z,7.60
2023-03-06T14:12:26.767Z,7.18
2023-03-06T14:15:05.602Z,6.78
2023-03-06T14:17:39.211Z,8.65
2023-03-06T14:20:20.198Z,6.80
2023-03-06T14:23:33.482Z,7.55
2023-03-06T14:26:23.402Z,6.70
2023-03-06T14:29:00.756Z,8.45
2023-03-06T14:31:43.139Z,9.02
2023-03-06T14:34:27.619Z,5.63
2023-03-06T14:37:03.374Z,7.22
2023-03-06T14:39:42.706Z,9.02
2023-03-06T14:42:26.452Z,6.95
2023-03-06T14:45:05.536Z,6.13
2023-03-06T14:47:37.480Z,5.05
2023-03-06T14:50:25.657Z,6.22
2023-03-06T14:53:04.251Z,6.30
2023-03-06T14:55:36.342Z,6.45
2023-03-06T14:58:16.134Z,5.55
2023-03-06T15:00:57.016Z,7.03
2023-03-06T15:03:45.220Z,5.95
2023-03-06T15:06:24.388Z,6.32
2023-03-06T15:09:31.421Z,7.28
2023-03-06T15:12:33.473Z,8.52
2023-03-06T15:15:15.956Z,10.00
2023-03-06T15:17:48.493Z,8.10
2023-03-06T15:20:53.144Z,6.32
2023-03-06T15:23:36.647Z,5.38
2023-03-06T15:26:29.157Z,7.45
2023-03-06T15:29:16.760Z,6.10
2023-03-06T15:31:48.654Z,7.50
2023-03-06T15:34:23.796Z,5.35
2023-03-06T15:36:58.688Z,6.25
2023-03-06T15:39:40.408Z,8.02
2023-03-06T15:42:26.663Z,6.40
2023-03-06T15:45:03.426Z,6.00
2023-03-06T15:47:35.184Z,5.80
2023-03-06T15:50:22.158Z,6.70
2023-03-06T15:52:53.994Z,6.60
2023-03-06T15:55:26.281Z,5.90
2023-03-06T15:58:00.940Z,5.70
2023-03-06T16:00:40.082Z,7.57
2023-03-06T16:03:12.465Z,9.60
2023-03-06T16:05:44.250Z,7.05
2023-03-06T16:08:16.246Z,7.78
2023-03-06T16:10:48.289Z,7.28
2023-03-06T16:13:28.633Z,7.28
2023-03-06T16:16:00.210Z,8.73
2023-03-06T16:18:31.869Z,7.30
2023-03-06T16:21:03.827Z,8.77
2023-03-06T16:23:38.842Z,6.45
2023-03-06T16:26:29.293Z,7.82
2023-03-06T16:29:01.412Z,7.03
2023-03-06T16:31:33.244Z,6.95
2023-03-06T16:34:04.791Z,6.90
2023-03-06T16:36:36.779Z,7.40
2023-03-06T16:39:21.282Z,6.95
2023-03-06T16:41:53.020Z,7.30
2023-03-06T16:44:24.621Z,6.50
2023-03-06T16:46:56.199Z,6.78
2023-03-06T16:49:27.894Z,6.70
2023-03-06T16:52:00.402Z,5.82
2023-03-06T16:54:31.995Z,9.02
2023-03-06T16:57:03.646Z,9.38
2023-03-06T16:59:35.415Z,6.43
2023-03-06T17:02:07.044Z,6.90
2023-03-06T17:04:39.387Z,6.72
2023-03-06T17:07:10.954Z,5.22
2023-03-06T17:09:43.322Z,5.05
2023-03-06T17:12:15.004Z,6.82
2023-03-06T17:14:46.788Z,7.47
2023-03-06T17:17:18.561Z,4.93
2023-03-06T17:19:52.371Z,6.95
2023-03-06T17:22:26.632Z,8.75
2023-03-06T17:24:58.228Z,7.45
2023-03-06T17:27:30.244Z,6.15
2023-03-06T17:30:02.675Z,5.57
2023-03-06T17:32:34.394Z,6.97
2023-03-06T17:35:08.497Z,7.95
2023-03-06T17:37:40.189Z,8.23
2023-03-06T17:40:12.406Z,7.43
2023-03-06T17:42:44.042Z,6.20
2023-03-06T17:45:15.623Z,6.20
2023-03-06T17:47:49.042Z,7.28
2023-03-06T17:50:21.047Z,6.60
2023-03-06T17:52:52.633Z,5.90
2023-03-06T17:55:24.266Z,5.82
2023-03-06T17:57:55.823Z,8.45
2023-03-06T18:00:29.660Z,6.97
2023-03-06T18:03:01.275Z,6.32
2023-03-06T18:05:32.971Z,6.53
2023-03-06T18:08:05.718Z,5.35
2023-03-06T18:10:41.888Z,7.97
2023-03-06T18:13:14.188Z,5.80
2023-03-06T18:15:45.992Z,6.40
2023-03-06T18:18:17.570Z,5.35
2023-03-06T18:20:49.636Z,6.05
2023-03-06T18:23:21.756Z,8.50
2023-03-06T18:25:53.363Z,5.72
2023-03-06T18:28:27.310Z,5.22
2023-03-06T18:30:58.905Z,8.10
2023-03-06T18:33:30.403Z,6.78
2023-03-06T18:36:03.673Z,5.65
2023-03-06T18:38:35.426Z,8.32
2023-03-06T18:41:10.607Z,7.13
2023-03-06T18:43:42.325Z,7.63
2023-03-06T18:46:14.012Z,7.60
2023-03-06T18:48:45.739Z,7.43
2023-03-06T18:51:18.026Z,8.95
2023-03-06T18:53:49.797Z,8.95
2023-03-06T18:56:22.012Z,6.63
2023-03-06T18:58:54.708Z,6.18
2023-03-06T19:01:27.226Z,6.68
2023-03-06T19:04:01.707Z,8.43
2023-03-06T19:06:33.341Z,8.82
2023-03-06T19:09:05.655Z,6.88
2023-03-06T19:11:37.478Z,7.65
2023-03-06T19:14:09.220Z,7.38
2023-03-06T19:16:41.647Z,6.35
2023-03-06T19:19:13.304Z,8.93
2023-03-06T19:21:45.137Z,5.18
2023-03-06T19:24:16.677Z,6.90
2023-03-06T19:26:48.171Z,6.93
2023-03-06T19:29:19.749Z,6.72
2023-03-06T19:31:52.199Z,8.70
2023-03-06T19:34:23.838Z,7.47
2023-03-06T19:36:55.444Z,6.00
2023-03-06T19:39:27.035Z,7.47
2023-03-06T19:41:58.577Z,6.50
2023-03-06T19:44:30.290Z,7.57
2023-03-06T19:47:01.854Z,6.05
2023-03-06T19:49:33.955Z,7.20
2023-03-06T19:52:07.448Z,6.80
2023-03-06T19:54:39.239Z,6.90
2023-03-06T19:57:10.824Z,8.18
2023-03-06T19:59:42.538Z,6.72
2023-03-06T20:02:16.052Z,7.28
2023-03-06T20:04:47.633Z,5.82
2023-03-06T20:07:19.357Z,8.27
2023-03-06T20:09:52.327Z,6.60
2023-03-06T20:12:23.829Z,6.82
2023-03-06T20:14:55.373Z,6.50
2023-03-06T20:17:29.564Z,6.72
2023-03-06T20:20:01.797Z,6.32
2023-03-06T20:22:33.548Z,5.88
2023-03-06T20:25:06.140Z,10.27
2023-03-06T20:27:37.821Z,7.30
2023-03-06T20:30:10.261Z,7.10
2023-03-06T20:32:41.841Z,8.07
2023-03-06T20:35:13.998Z,8.18
2023-03-06T20:37:48.712Z,5.65
2023-03-06T20:40:22.786Z,7.00
2023-03-06T20:42:54.380Z,5.63
2023-03-06T20:45:26.050Z,6.80
2023-03-06T20:47:57.705Z,5.93
2023-03-06T20:50:29.335Z,6.25
2023-03-06T20:53:01.620Z,7.07
2023-03-06T20:55:37.586Z,8.38
2023-03-06T20:58:09.160Z,7.30
2023-03-06T21:00:41.351Z,8.98
2023-03-06T21:03:12.948Z,7.60
2023-03-06T21:05:47.814Z,6.55
2023-03-06T21:08:19.433Z,7.40
2023-03-06T21:10:51.148Z,9.00
2023-03-06T21:13:22.725Z,8.40
2023-03-06T21:15:56.603Z,6.50
2023-03-06T21:18:28.162Z,7.40
2023-03-06T21:21:04.250Z,8.30
2023-03-06T21:23:42.892Z,7.50
2023-03-06T21:26:24.904Z,7.05
2023-03-06T21:28:59.021Z,6.65
2023-03-06T21:31:31.781Z,8.05
2023-03-06T21:34:05.168Z,7.13
2023-03-06T21:36:37.231Z,6.15
2023-03-06T21:39:09.285Z,7.70
2023-03-06T21:41:41.176Z,6.47
2023-03-06T21:44:18.231Z,6.07
2023-03-06T21:46:57.450Z,7.15
2023-03-06T21:49:30.153Z,6.80
2023-03-06T21:52:01.658Z,7.88
2023-03-06T21:54:33.261Z,7.18
2023-03-06T21:57:05.066Z,8.07
2023-03-06T21:59:37.710Z,6.38
2023-03-06T22:02:10.941Z,8.98
2023-03-06T22:04:42.896Z,7.18
2023-03-06T22:07:14.459Z,8.40
2023-03-06T22:09:46.594Z,6.63
2023-03-06T22:12:21.722Z,8.18
2023-03-06T22:14:53.896Z,8.05
2023-03-06T22:17:25.638Z,10.88
2023-03-06T22:19:57.799Z,8.52
2023-03-06T22:22:30.707Z,7.40
2023-03-06T22:25:02.799Z,6.88
2023-03-06T22:27:34.326Z,6.85
2023-03-06T22:30:08.468Z,7.88
2023-03-06T22:32:40.081Z,7.93
2023-03-06T22:35:11.694Z,8.70
2023-03-06T22:37:45.386Z,8.60
2023-03-06T22:40:17.106Z,6.50
2023-03-06T22:42:48.666Z,6.80
2023-03-06T22:45:20.244Z,7.85
2023-03-06T22:47:55.139Z,6.93
2023-03-06T22:50:28.797Z,7.63
2023-03-06T22:53:00.287Z,8.25
2023-03-06T22:55:35.110Z,7.88
2023-03-06T22:58:06.690Z,10.43
2023-03-06T23:00:39.327Z,6.93
2023-03-06T23:03:10.844Z,8.30
2023-03-06T23:05:43.042Z,8.75
2023-03-06T23:08:14.772Z,8.82
2023-03-06T23:10:46.276Z,8.48
2023-03-06T23:13:17.820Z,10.23
2023-03-06T23:15:49.429Z,7.07
2023-03-06T23:18:21.082Z,8.77
2023-03-06T23:20:52.714Z,7.32
2023-03-06T23:23:25.172Z,8.80
2023-03-06T23:26:00.431Z,8.73
2023-03-06T23:28:32.808Z,7.80
2023-03-06T23:31:31.226Z,7.68
2023-03-06T23:34:03.814Z,7.60
2023-03-06T23:36:38.431Z,8.05
2023-03-06T23:39:12.569Z,8.13
2023-03-06T23:41:44.160Z,9.15
2023-03-06T23:44:15.759Z,8.93
2023-03-06T23:46:47.330Z,7.15
2023-03-06T23:49:21.973Z,9.60
2023-03-06T23:51:56.686Z,7.75
2023-03-06T23:54:28.252Z,9.98
2023-03-06T23:56:59.994Z,8.75
2023-03-06T23:59:31.783Z,9.45
